Time;durP1;ratioP1;P1;durP2;ratioP2;P2;SDS_P1;SDS_P2;PMS_P1;PMS_P2;Temp;Humidity;BMP_temperature;BMP_pressure;BME280_temperature;BME280_humidity;BME280_pressure;Samples;Min_cycle;Max_cycle;Signal;HPM_P1;HPM_P2
2022/06/10 00:01:44;;;;;;;18.33;5.15;;;;;;;15.81;100.00;98870.22;4792340;29;20168;-80
2022/06/10 00:04:10;;;;;;;16.63;4.70;;;;;;;15.86;100.00;98878.28;4793564;29;20157;-79
2022/06/10 00:06:36;;;;;;;19.38;5.80;;;;;;;15.75;100.00;98877.25;4807763;29;20117;-79
2022/06/10 00:09:03;;;;;;;18.55;5.88;;;;;;;15.87;100.00;98873.78;4808104;29;20125;-79
2022/06/10 00:11:29;;;;;;;27.35;6.45;;;;;;;15.88;100.00;98872.75;4792473;29;20035;-79
2022/06/10 00:13:54;;;;;;;22.33;5.45;;;;;;;15.94;100.00;98869.22;4824496;29;20037;-79
2022/06/10 00:16:20;;;;;;;19.30;5.90;;;;;;;15.70;100.00;98882.44;4791671;29;20042;-79
2022/06/10 00:18:46;;;;;;;16.02;5.55;;;;;;;15.94;100.00;98875.28;4824651;29;20117;-79
2022/06/10 00:21:15;;;;;;;21.25;5.80;;;;;;;15.92;100.00;98881.88;4807359;29;20133;-79
2022/06/10 00:23:42;;;;;;;22.42;6.28;;;;;;;16.06;100.00;98883.19;4823865;29;20050;-80
2022/06/10 00:26:08;;;;;;;30.33;6.25;;;;;;;15.93;100.00;98883.47;4792489;29;20502;-80
2022/06/10 00:28:43;;;;;;;17.73;5.20;;;;;;;16.04;100.00;98877.34;4821742;29;20038;-79
2022/06/10 00:31:16;;;;;;;19.48;6.00;;;;;;;15.81;100.00;98876.31;4805975;29;20086;-81
2022/06/10 00:33:42;;;;;;;25.60;6.25;;;;;;;16.03;100.00;98878.38;4805795;29;20046;-79
2022/06/10 00:36:09;;;;;;;23.45;6.70;;;;;;;15.82;100.00;98883.22;4824360;29;20038;-79
2022/06/10 00:38:35;;;;;;;18.38;5.50;;;;;;;15.91;100.00;98877.59;4807111;29;20462;-79
2022/06/10 00:41:03;;;;;;;20.05;6.20;;;;;;;15.92;100.00;98876.59;4807488;29;20068;-80
2022/06/10 00:43:34;;;;;;;19.30;5.80;;;;;;;15.77;100.00;98874.38;4806793;29;20486;-79
2022/06/10 00:46:09;;;;;;;23.80;6.22;;;;;;;15.75;100.00;98877.25;4806210;29;20081;-78
2022/06/10 00:48:36;;;;;;;23.77;6.28;;;;;;;15.64;100.00;98883.38;4807100;29;20042;-78
2022/06/10 00:51:45;;;;;;;23.42;6.43;;;;;;;15.45;100.00;98890.63;4824175;29;20038;-80
2022/06/10 00:54:10;;;;;;;28.23;7.20;;;;;;;15.39;100.00;98881.78;4805704;29;20390;-79
2022/06/10 00:56:38;;;;;;;25.98;6.60;;;;;;;15.38;100.00;98880.16;4791659;29;20035;-78
2022/06/10 00:59:20;;;;;;;20.90;5.78;;;;;;;15.37;100.00;98889.13;4807402;29;20034;-79
2022/06/10 01:01:47;;;;;;;28.73;7.28;;;;;;;15.37;100.00;98871.41;4793391;29;20102;-78
2022/06/10 01:04:13;;;;;;;26.77;6.32;;;;;;;15.17;100.00;98882.34;4807053;29;20490;-79
2022/06/10 01:06:39;;;;;;;23.95;6.35;;;;;;;15.07;100.00;98872.31;4823390;29;20026;-80
2022/06/10 01:09:07;;;;;;;26.73;5.65;;;;;;;15.24;100.00;98876.94;4806755;29;20041;-80
2022/06/10 01:12:00;;;;;;;27.08;5.57;;;;;;;15.33;100.00;98886.13;4805832;29;20887;-80
2022/06/10 01:14:42;;;;;;;24.67;5.80;;;;;;;15.13;100.00;98887.25;4807255;29;20133;-81
2022/06/10 01:17:23;;;;;;;21.67;6.70;;;;;;;14.94;100.00;98893.66;4823600;29;20026;-80
2022/06/10 01:19:57;;;;;;;33.90;7.15;;;;;;;14.94;100.00;98881.28;4790892;29;20450;-80
2022/06/10 01:22:50;;;;;;;24.75;5.93;;;;;;;15.03;100.00;98880.94;4806287;29;20692;-80
2022/06/10 01:25:25;;;;;;;23.95;6.28;;;;;;;14.97;100.00;98877.34;4791759;29;20118;-79
2022/06/10 01:28:15;;;;;;;39.40;6.95;;;;;;;14.61;100.00;98885.16;4806867;29;20046;-80
2022/06/10 01:31:18;;;;;;;26.60;5.97;;;;;;;14.89;100.00;98875.84;4790257;29;20019;-81
2022/06/10 01:34:04;;;;;;;38.60;7.68;;;;;;;14.77;100.00;98873.19;4821205;29;20042;-80
2022/06/10 01:36:42;;;;;;;32.97;6.25;;;;;;;14.71;100.00;98889.94;4806436;29;20030;-80
2022/06/10 01:39:21;;;;;;;38.15;6.85;;;;;;;14.78;100.00;98876.63;4820749;29;20027;-80
2022/06/10 01:41:56;;;;;;;36.70;8.35;;;;;;;14.54;100.00;98887.06;4804436;29;20042;-81
2022/06/10 01:44:38;;;;;;;33.30;7.75;;;;;;;14.73;100.00;98889.69;4805694;29;20091;-80
2022/06/10 01:47:23;;;;;;;28.40;5.97;;;;;;;14.76;100.00;98884.78;4805812;29;20038;-81
2022/06/10 01:49:57;;;;;;;32.70;6.55;;;;;;;14.84;100.00;98891.56;4806903;29;20065;-80
2022/06/10 01:52:32;;;;;;;;;;;;;;;14.70;100.00;98891.72;4823430;29;20038;-80
2022/06/10 01:55:10;;;;;;;28.90;7.47;;;;;;;14.67;100.00;98897.47;4819229;29;19923;-80
2022/06/10 01:57:57;;;;;;;34.70;7.10;;;;;;;14.52;100.00;98894.41;4805150;29;20027;-80
2022/06/10 02:00:28;;;;;;;28.67;6.45;;;;;;;14.74;100.00;98896.59;4806031;29;20374;-79
2022/06/10 02:03:22;;;;;;;25.92;6.57;;;;;;;14.78;100.00;98895.91;4791203;29;20062;-80
2022/06/10 02:05:58;;;;;;;31.80;6.68;;;;;;;14.62;100.00;98891.25;4805622;29;20050;-80
2022/06/10 02:08:31;;;;;;;26.60;6.10;;;;;;;14.61;100.00;98887.81;4806560;29;20049;-80
2022/06/10 02:11:04;;;;;;;37.00;7.22;;;;;;;14.39;100.00;98890.94;4806717;29;20049;-81
2022/06/10 02:13:33;;;;;;;;;;;;;;;14.48;100.00;98890.63;4806865;29;20134;-81
2022/06/10 02:16:02;;;;;;;28.80;6.72;;;;;;;14.41;100.00;98891.53;4791575;29;19979;-81
2022/06/10 02:18:35;;;;;;;38.85;7.10;;;;;;;14.30;100.00;98888.84;4812715;29;20045;-80
2022/06/10 02:21:10;;;;;;;26.58;6.57;;;;;;;14.30;100.00;98886.97;4791052;29;20500;-80
2022/06/10 02:23:40;;;;;;;20.52;5.85;;;;;;;14.19;100.00;98893.03;4804540;29;20076;-80
2022/06/10 02:26:07;;;;;;;26.20;6.70;;;;;;;14.06;100.00;98894.78;4822936;29;20070;-79
2022/06/10 02:28:47;;;;;;;34.30;7.45;;;;;;;14.07;100.00;98895.59;4804370;29;20038;-81
2022/06/10 02:31:20;;;;;;;37.25;7.82;;;;;;;13.95;100.00;98887.59;4821011;29;20069;-81
2022/06/10 02:33:48;;;;;;;30.75;6.47;;;;;;;13.99;100.00;98899.34;4791008;29;20125;-80
2022/06/10 02:36:34;;;;;;;35.25;7.95;;;;;;;13.91;100.00;98889.88;4805116;29;20087;-81
2022/06/10 02:39:33;;;;;;;29.70;7.32;;;;;;;13.88;100.00;98892.16;4823282;29;20113;-81
2022/06/10 02:42:23;;;;;;;28.77;6.53;;;;;;;13.75;100.00;98888.63;4796658;29;20047;-80
2022/06/10 02:45:19;;;;;;;34.03;8.40;;;;;;;13.76;100.00;98895.53;4810200;29;20038;-80
2022/06/10 02:47:57;;;;;;;34.75;6.88;;;;;;;13.69;100.00;98898.22;4789696;29;20038;-80
2022/06/10 02:50:23;;;;;;;33.85;7.47;;;;;;;13.61;100.00;98898.50;4805851;29;20038;-81
2022/06/10 02:52:49;;;;;;;33.45;6.78;;;;;;;13.57;100.00;98897.31;4809491;29;20043;-80
2022/06/10 02:55:20;;;;;;;27.55;6.57;;;;;;;13.60;100.00;98904.81;4809775;29;20038;-79
2022/06/10 03:03:39;;;;;;;33.88;6.57;;;;;;;13.51;100.00;98909.53;4826341;29;20053;-79
2022/06/10 03:06:13;;;;;;;35.15;7.00;;;;;;;13.52;100.00;98913.78;4825005;29;20038;-79
2022/06/10 03:08:48;;;;;;;40.58;7.32;;;;;;;13.60;100.00;98906.66;4824927;29;20035;-80
2022/06/10 03:11:55;;;;;;;34.17;7.57;;;;;;;13.61;100.00;98910.91;4809561;29;20053;-78
2022/06/10 03:14:54;;;;;;;29.15;6.10;;;;;;;13.61;100.00;98913.53;4751280;29;20076;-80
2022/06/10 03:17:43;;;;;;;33.10;7.30;;;;;;;13.57;100.00;98913.97;4823417;29;20397;-80
2022/06/10 03:20:15;;;;;;;23.23;6.18;;;;;;;13.52;100.00;98905.09;4808330;29;20030;-79
2022/06/10 03:23:02;;;;;;;28.25;6.50;;;;;;;13.51;100.00;98909.53;4793469;29;20167;-79
2022/06/10 03:25:42;;;;;;;24.98;6.70;;;;;;;13.40;100.00;98912.88;4825411;29;20504;-79
2022/06/10 03:28:30;;;;;;;39.67;8.73;;;;;;;13.30;100.00;98913.38;4798232;29;20041;-80
2022/06/10 03:31:13;;;;;;;37.92;6.63;;;;;;;13.33;100.00;98914.75;4793542;29;20034;-80
2022/06/10 03:33:49;;;;;;;35.78;8.05;;;;;;;13.27;100.00;98909.31;4823810;29;20117;-80
2022/06/10 03:36:21;;;;;;;29.20;6.45;;;;;;;13.19;100.00;98911.41;4822616;29;20042;-79
2022/06/10 03:38:50;;;;;;;29.93;6.57;;;;;;;13.12;100.00;98917.53;4808469;29;20454;-80
2022/06/10 03:41:27;;;;;;;33.17;6.45;;;;;;;13.14;100.00;98915.50;4796298;29;20039;-79
2022/06/10 03:43:55;;;;;;;34.25;5.97;;;;;;;12.98;100.00;98906.31;4823245;29;20506;-79
2022/06/10 03:46:24;;;;;;;27.30;7.00;;;;;;;13.00;100.00;98912.16;4823506;29;20417;-79
2022/06/10 03:48:51;;;;;;;32.70;8.32;;;;;;;12.94;100.00;98905.09;4824999;29;20034;-79
2022/06/10 03:51:18;;;;;;;27.98;7.38;;;;;;;12.91;100.00;98923.16;4825282;29;20046;-80
2022/06/10 03:53:44;;;;;;;40.15;6.97;;;;;;;12.84;100.00;98920.56;4825316;29;20397;-81
2022/06/10 03:56:10;;;;;;;43.70;7.50;;;;;;;12.89;100.00;98926.00;4825434;29;20496;-80
2022/06/10 03:58:41;;;;;;;26.58;6.38;;;;;;;12.86;100.00;98929.06;4807795;29;20113;-80
2022/06/10 04:01:07;;;;;;;28.27;6.95;;;;;;;12.82;100.00;98927.88;4808190;29;20172;-80
2022/06/10 04:03:32;;;;;;;30.45;6.88;;;;;;;12.79;100.00;98934.38;4809005;29;20113;-80
2022/06/10 04:05:58;;;;;;;33.33;7.28;;;;;;;12.88;100.00;98937.56;4808153;29;20482;-81
2022/06/10 04:08:24;;;;;;;36.55;8.00;;;;;;;12.94;100.00;98944.59;4806831;29;20034;-80
2022/06/10 04:10:50;;;;;;;34.33;7.53;;;;;;;12.91;100.00;98941.59;4793340;29;20046;-81
2022/06/10 04:13:20;;;;;;;34.40;6.95;;;;;;;12.91;100.00;98937.13;4808702;29;20083;-80
2022/06/10 04:15:46;;;;;;;42.22;7.97;;;;;;;13.04;100.00;98946.78;4807880;29;20122;-80
2022/06/10 04:18:12;;;;;;;30.30;6.63;;;;;;;13.11;100.00;98933.56;4822202;29;20405;-80
2022/06/10 04:20:40;;;;;;;33.50;7.03;;;;;;;13.19;100.00;98933.31;4808346;29;20042;-80
2022/06/10 04:23:06;;;;;;;31.95;7.00;;;;;;;13.10;100.00;98931.94;4807821;29;20038;-80
2022/06/10 04:25:34;;;;;;;33.60;6.68;;;;;;;13.22;100.00;98946.06;4824615;29;20042;-80
2022/06/10 04:28:00;;;;;;;35.50;7.20;;;;;;;13.28;100.00;98937.28;4808305;29;20034;-80
2022/06/10 04:30:32;;;;;;;40.67;8.13;;;;;;;13.37;100.00;98943.09;4824715;29;20042;-81
2022/06/10 04:32:59;;;;;;;39.08;7.47;;;;;;;13.42;100.00;98953.00;4824681;29;20042;-79
2022/06/10 04:35:26;;;;;;;36.28;7.88;;;;;;;13.46;100.00;98953.41;4824297;29;20038;-80
2022/06/10 04:37:53;;;;;;;34.95;6.85;;;;;;;13.41;100.00;98944.28;4807125;29;20035;-80
2022/06/10 04:40:23;;;;;;;32.50;7.32;;;;;;;13.59;100.00;98952.50;4823307;29;20105;-79
2022/06/10 04:42:49;;;;;;;28.80;6.65;;;;;;;13.63;100.00;98953.69;4823953;29;20062;-81
2022/06/10 04:45:17;;;;;;;38.92;8.77;;;;;;;13.61;100.00;98953.09;4807379;29;20034;-80
2022/06/10 04:47:43;;;;;;;23.42;7.53;;;;;;;13.60;100.00;98952.28;4824356;29;20039;-80
2022/06/10 04:50:11;;;;;;;28.42;6.40;;;;;;;13.65;100.00;98955.06;4822895;29;20579;-80
2022/06/10 04:52:38;;;;;;;30.42;7.28;;;;;;;13.74;100.00;98957.44;4807083;29;20402;-81
2022/06/10 04:55:07;;;;;;;36.15;7.57;;;;;;;13.70;100.00;98947.31;4824292;29;20073;-80
2022/06/10 04:57:33;;;;;;;29.20;7.07;;;;;;;13.71;100.00;98948.94;4821427;29;20027;-80
2022/06/10 04:59:59;;;;;;;33.13;7.30;;;;;;;13.82;100.00;98946.59;4806938;29;20038;-81
2022/06/10 05:02:24;;;;;;;32.70;6.60;;;;;;;13.90;100.00;98950.78;4807223;29;20856;-80
2022/06/10 05:04:50;;;;;;;32.08;6.10;;;;;;;13.96;100.00;98957.84;4824156;29;20087;-80
2022/06/10 05:07:16;;;;;;;41.13;7.63;;;;;;;13.96;100.00;98956.00;4823866;29;20038;-80
2022/06/10 05:09:42;;;;;;;44.70;7.75;;;;;;;14.07;100.00;98951.81;4807071;29;20038;-80
2022/06/10 05:12:08;;;;;;;27.33;6.45;;;;;;;14.17;100.00;98956.59;4807888;29;20042;-80
2022/06/10 05:14:34;;;;;;;36.03;6.93;;;;;;;14.17;100.00;98959.22;4822845;29;20183;-81
2022/06/10 05:17:02;;;;;;;29.10;6.03;;;;;;;14.27;100.00;98954.25;4792718;29;20034;-81
2022/06/10 05:19:29;;;;;;;29.75;7.70;;;;;;;14.33;100.00;98949.91;4808333;29;20082;-82
2022/06/10 05:21:56;;;;;;;36.60;8.40;;;;;;;14.40;100.00;98945.38;4805325;29;20034;-81
2022/06/10 05:24:22;;;;;;;38.70;7.00;;;;;;;14.43;100.00;98952.84;4792908;29;20172;-80
2022/06/10 05:26:47;;;;;;;26.25;7.25;;;;;;;14.55;100.00;98954.75;4807714;29;20176;-80
2022/06/10 05:29:13;;;;;;;35.95;6.40;;;;;;;14.68;100.00;98962.47;4792103;29;20038;-81
2022/06/10 05:31:39;;;;;;;32.30;7.30;;;;;;;14.78;100.00;98954.06;4806848;29;20115;-81
2022/06/10 05:36:49;;;;;;;33.15;8.25;;;;;;;15.05;100.00;98958.16;4823792;29;20030;-81
2022/06/10 05:39:14;;;;;;;44.60;8.10;;;;;;;15.42;100.00;98947.44;4822730;29;20031;-81
2022/06/10 05:44:25;;;;;;;29.55;7.07;;;;;;;16.19;100.00;98955.47;4808040;29;20481;-82
2022/06/10 05:46:55;;;;;;;32.63;7.20;;;;;;;16.50;100.00;98956.06;4824289;29;20034;-81
2022/06/10 05:49:22;;;;;;;36.80;6.65;;;;;;;16.85;100.00;98958.59;4789433;29;20035;-80
2022/06/10 05:51:48;;;;;;;30.30;7.65;;;;;;;17.10;100.00;98951.38;4792265;29;20034;-79
2022/06/10 05:54:15;;;;;;;32.30;6.22;;;;;;;17.28;100.00;98955.63;4806447;29;20034;-79
2022/06/10 05:56:43;;;;;;;30.65;6.75;;;;;;;17.24;100.00;98949.22;4806138;29;20042;-80
2022/06/10 05:59:10;;;;;;;25.40;6.57;;;;;;;17.20;100.00;98948.09;4824758;29;20147;-81
2022/06/10 06:01:36;;;;;;;24.08;5.68;;;;;;;16.90;100.00;98949.13;4790956;29;20035;-84
2022/06/10 06:04:03;;;;;;;31.85;6.68;;;;;;;16.72;100.00;98958.88;4807595;29;20399;-82
2022/06/10 06:06:30;;;;;;;31.60;6.90;;;;;;;16.70;100.00;98966.28;4790666;29;20034;-87
2022/06/10 06:09:03;;;;;;;30.95;5.43;;;;;;;16.20;100.00;98959.75;4804113;29;20051;-84
2022/06/10 06:11:35;;;;;;;29.88;6.60;;;;;;;16.38;100.00;98970.19;4789881;29;20034;-83
2022/06/10 06:14:01;;;;;;;25.52;6.28;;;;;;;16.38;100.00;98954.28;4804102;29;20046;-85
2022/06/10 06:16:26;;;;;;;39.00;7.70;;;;;;;16.57;100.00;98967.38;4804217;29;20047;-85
2022/06/10 06:18:52;;;;;;;33.00;6.32;;;;;;;16.47;100.00;98970.63;4805713;29;20058;-85
2022/06/10 06:21:18;;;;;;;28.25;6.53;;;;;;;16.64;100.00;98967.22;4792081;29;20482;-88
2022/06/10 06:23:44;;;;;;;33.33;6.60;;;;;;;16.51;100.00;98968.31;4791700;29;20137;-85
2022/06/10 06:26:15;;;;;;;37.95;6.97;;;;;;;16.67;100.00;98972.06;4792741;29;20042;-85
2022/06/10 06:28:41;;;;;;;31.77;6.35;;;;;;;17.02;100.00;98975.63;4821850;29;20034;-86
2022/06/10 06:31:08;;;;;;;32.35;7.47;;;;;;;17.58;100.00;98990.84;4805086;29;20120;-85
2022/06/10 06:33:34;;;;;;;35.08;7.32;;;;;;;17.93;100.00;98989.78;4808970;29;20065;-85
2022/06/10 06:36:04;;;;;;;29.40;6.15;;;;;;;18.52;100.00;98989.22;4793883;29;20030;-89
2022/06/10 06:38:31;;;;;;;29.70;6.07;;;;;;;19.12;100.00;98999.19;4822313;29;20168;-85
2022/06/10 06:40:56;;;;;;;33.20;5.75;;;;;;;18.80;100.00;98998.06;4790642;29;20034;-85
2022/06/10 06:43:22;;;;;;;29.30;7.00;;;;;;;19.08;100.00;99006.06;4804174;29;20500;-85
2022/06/10 06:45:48;;;;;;;26.40;6.25;;;;;;;18.52;100.00;99001.72;4821624;29;21755;-86
2022/06/10 06:48:14;;;;;;;26.42;6.53;;;;;;;19.19;100.00;99001.66;4790075;29;20061;-85
2022/06/10 06:50:44;;;;;;;23.35;5.28;;;;;;;19.44;100.00;98998.38;4803998;29;20084;-83
2022/06/10 06:53:10;;;;;;;29.38;6.03;;;;;;;19.25;100.00;99012.06;4804531;29;20125;-82
2022/06/10 06:55:38;;;;;;;22.63;6.47;;;;;;;19.31;100.00;99010.25;4823254;29;20069;-83
2022/06/10 06:58:06;;;;;;;30.13;6.60;;;;;;;19.45;100.00;99007.19;4807576;29;20042;-85
2022/06/10 07:00:34;;;;;;;31.73;6.15;;;;;;;19.74;100.00;99002.34;4791438;29;20502;-88
2022/06/10 07:03:00;;;;;;;30.60;6.40;;;;;;;20.08;100.00;98996.72;4807742;29;20043;-84
2022/06/10 07:05:26;;;;;;;26.02;6.25;;;;;;;19.56;100.00;99014.19;4809592;29;20030;-87
2022/06/10 07:07:52;;;;;;;28.15;6.20;;;;;;;19.50;100.00;99009.88;4791760;29;20501;-87
2022/06/10 07:10:20;;;;;;;35.10;6.63;;;;;;;19.91;100.00;99009.38;4804892;29;20031;-85
2022/06/10 07:12:47;;;;;;;30.27;6.03;;;;;;;20.00;100.00;99012.38;4814229;29;20512;-84
2022/06/10 07:15:18;;;;;;;26.40;5.57;;;;;;;19.99;100.00;99008.91;4803007;29;20146;-87
2022/06/10 07:17:44;;;;;;;26.17;6.10;;;;;;;20.02;100.00;99016.38;4822717;29;20034;-84
2022/06/10 07:20:19;;;;;;;27.95;6.07;;;;;;;19.32;100.00;99021.72;4821353;29;20090;-85
2022/06/10 07:22:44;;;;;;;23.73;6.28;;;;;;;19.44;100.00;99018.88;4821039;29;20400;-85
2022/06/10 07:25:12;;;;;;;24.95;5.15;;;;;;;19.10;100.00;99026.03;4818697;29;20121;-85
2022/06/10 07:27:38;;;;;;;27.75;5.70;;;;;;;19.19;100.00;99023.72;4824261;29;20038;-84
2022/06/10 07:30:05;;;;;;;22.15;6.03;;;;;;;19.03;100.00;99028.09;4793590;29;20160;-85
2022/06/10 07:32:31;;;;;;;27.38;6.93;;;;;;;18.45;100.00;99030.31;4812439;29;20434;-86
2022/06/10 07:34:57;;;;;;;24.50;5.47;;;;;;;18.18;100.00;99031.88;4804880;29;20113;-84
2022/06/10 07:37:23;;;;;;;24.48;5.78;;;;;;;18.39;100.00;99032.13;4792703;29;20039;-84
2022/06/10 07:39:49;;;;;;;31.92;6.30;;;;;;;18.36;100.00;99036.06;4809881;29;20071;-84
2022/06/10 07:42:15;;;;;;;28.60;6.85;;;;;;;18.17;100.00;99040.06;4808963;29;20039;-84
2022/06/10 07:44:40;;;;;;;31.75;6.38;;;;;;;17.98;100.00;99042.94;4808589;29;20188;-85
2022/06/10 07:47:10;;;;;;;29.67;6.03;;;;;;;18.02;100.00;99049.41;4792583;29;20088;-84
2022/06/10 07:49:37;;;;;;;26.65;6.90;;;;;;;18.52;100.00;99046.91;4792683;29;20508;-85
2022/06/10 07:52:04;;;;;;;27.27;6.05;;;;;;;18.83;100.00;99053.38;4807638;29;20114;-84
2022/06/10 07:54:30;;;;;;;23.08;5.22;;;;;;;18.31;100.00;99046.63;4807704;29;20043;-86
2022/06/10 07:56:57;;;;;;;28.70;5.60;;;;;;;18.68;100.00;99056.69;4792744;29;20031;-84
2022/06/10 07:59:23;;;;;;;29.15;6.20;;;;;;;18.46;100.00;99053.19;4794070;29;20494;-84
2022/06/10 08:01:49;;;;;;;23.58;5.40;;;;;;;18.73;99.93;99052.47;4809336;29;20035;-85
2022/06/10 08:04:14;;;;;;;28.95;6.35;;;;;;;18.88;100.00;99047.34;4792521;29;20035;-84
2022/06/10 08:06:44;;;;;;;31.02;5.72;;;;;;;18.62;97.48;99057.66;4809234;29;20074;-85
2022/06/10 08:09:11;;;;;;;24.85;5.47;;;;;;;18.42;100.00;99045.72;4810078;29;20039;-83
2022/06/10 08:11:38;;;;;;;20.67;5.10;;;;;;;18.50;97.69;99054.31;4808000;29;20034;-85
2022/06/10 08:14:04;;;;;;;22.17;5.03;;;;;;;19.04;97.80;99045.66;4808386;29;20183;-86
2022/06/10 08:16:31;;;;;;;26.52;6.03;;;;;;;19.49;98.23;99054.34;4793688;29;20051;-84
2022/06/10 08:18:56;;;;;;;28.38;5.72;;;;;;;19.77;96.67;99044.44;4809984;29;20138;-85
2022/06/10 08:24:06;;;;;;;21.63;5.63;;;;;;;19.51;97.00;99046.91;4805396;29;20142;-86
2022/06/10 08:26:41;;;;;;;22.33;5.93;;;;;;;19.94;95.74;99048.84;4806840;29;20546;-84
2022/06/10 08:29:08;;;;;;;22.58;5.70;;;;;;;20.19;96.50;99053.53;4807242;29;20035;-84
2022/06/10 08:31:34;;;;;;;26.33;5.80;;;;;;;20.31;95.88;99044.50;4806485;29;20122;-84
2022/06/10 08:34:04;;;;;;;26.38;5.40;;;;;;;20.49;94.51;99043.28;4791260;29;20076;-86
2022/06/10 08:36:31;;;;;;;20.33;5.50;;;;;;;20.31;94.05;99050.66;4794207;29;20043;-85
2022/06/10 08:39:51;;;;;;;25.70;5.82;;;;;;;19.62;94.85;99057.63;4825669;29;20042;-86
2022/06/10 08:42:35;;;;;;;21.13;5.68;;;;;;;19.80;92.73;99054.56;4816265;29;20035;-85
2022/06/10 08:45:19;;;;;;;23.48;5.88;;;;;;;20.27;91.39;99057.56;4806425;29;20500;-87
2022/06/10 08:48:14;;;;;;;24.52;6.05;;;;;;;20.23;92.37;99059.13;4790136;29;20433;-86
2022/06/10 08:51:09;;;;;;;20.27;4.97;;;;;;;20.27;90.88;99057.56;4792390;29;20050;-85
2022/06/10 08:53:34;;;;;;;;;;;;;;;20.23;89.09;99059.94;4798083;29;20034;-85
2022/06/10 08:56:22;;;;;;;17.95;5.10;;;;;;;19.94;88.57;99070.16;4825353;29;19917;-85
2022/06/10 08:58:58;;;;;;;27.65;5.72;;;;;;;19.76;87.89;99069.47;4825695;29;20038;-88
2022/06/10 09:01:29;;;;;;;18.20;5.65;;;;;;;20.39;88.75;99050.16;4806183;29;20039;-85
2022/06/10 09:04:19;;;;;;;21.70;5.82;;;;;;;20.72;86.77;99057.25;4791080;29;20126;-85
2022/06/10 09:07:00;;;;;;;23.80;6.00;;;;;;;21.09;85.05;99051.75;4821704;29;20486;-85
2022/06/10 09:09:29;;;;;;;27.17;5.85;;;;;;;21.22;85.15;99055.81;4807278;29;20037;-85
2022/06/10 09:12:05;;;;;;;;;;;;;;;21.07;86.26;99069.13;4809541;29;20042;-83
2022/06/10 09:14:31;;;;;;;13.55;4.53;;;;;;;20.72;85.79;99046.56;4825817;29;19974;-83
2022/06/10 09:17:04;;;;;;;17.33;5.30;;;;;;;20.05;85.79;99053.19;4809182;29;20035;-85
2022/06/10 09:19:39;;;;;;;21.35;6.10;;;;;;;20.38;86.67;99064.56;4825661;29;20122;-85
2022/06/10 09:22:36;;;;;;;18.92;5.72;;;;;;;20.14;87.02;99058.03;4825639;29;20041;-88
2022/06/10 09:25:08;;;;;;;22.80;6.22;;;;;;;20.98;86.05;99050.94;4824594;29;20107;-86
2022/06/10 09:27:36;;;;;;;26.05;5.70;;;;;;;21.54;86.37;99040.59;4797021;29;20534;-86
2022/06/10 09:30:05;;;;;;;28.88;5.90;;;;;;;21.77;84.67;99038.50;4787709;30;20555;-85
2022/06/10 09:32:41;;;;;;;15.20;4.85;;;;;;;;;;4788925;30;20035;-84
2022/06/10 09:35:16;;;;;;;25.38;6.00;;;;;;;21.26;84.24;99035.53;4788982;30;20043;-85
2022/06/10 09:37:59;;;;;;;24.58;6.38;;;;;;;21.35;83.83;99045.66;4788141;30;20069;-86
2022/06/10 09:40:37;;;;;;;18.65;5.65;;;;;;;22.18;82.52;99038.41;4787861;30;20046;-85
2022/06/10 09:43:33;;;;;;;19.30;6.00;;;;;;;22.23;83.02;99045.63;4804565;29;20030;-86
2022/06/10 09:46:08;;;;;;;22.55;5.47;;;;;;;21.51;83.87;99047.28;4809009;29;20405;-86
2022/06/10 09:48:48;;;;;;;20.45;5.53;;;;;;;20.76;85.35;99034.31;4808913;29;20225;-86
2022/06/10 09:51:31;;;;;;;22.30;6.30;;;;;;;20.86;85.39;99058.38;4825746;29;20034;-85
2022/06/10 09:54:19;;;;;;;20.23;5.53;;;;;;;21.11;86.31;99041.63;4809005;29;20493;-86
2022/06/10 09:56:51;;;;;;;21.58;6.00;;;;;;;21.46;87.16;99046.47;4808627;29;20046;-84
2022/06/10 09:59:29;;;;;;;19.73;5.85;;;;;;;21.76;85.66;99061.72;4824749;29;20520;-85
2022/06/10 10:02:19;;;;;;;18.92;5.60;;;;;;;21.69;85.30;99061.19;4808236;29;20065;-84
2022/06/10 10:05:03;;;;;;;17.88;5.43;;;;;;;21.96;85.48;99058.25;4801674;29;20482;-84
2022/06/10 10:07:49;;;;;;;23.77;6.18;;;;;;;21.70;85.51;99049.44;4800909;29;20034;-84
2022/06/10 10:10:18;;;;;;;17.70;5.50;;;;;;;21.93;85.86;99055.28;4777569;30;20073;-85
2022/06/10 10:12:51;;;;;;;25.23;6.70;;;;;;;22.57;84.78;99047.66;4818240;29;20093;-90
2022/06/10 10:15:39;;;;;;;23.85;5.85;;;;;;;21.78;85.44;99051.56;4777982;29;20121;-88
2022/06/10 10:18:29;;;;;;;28.42;5.88;;;;;;;22.22;86.58;99054.72;4776584;29;20051;-89
2022/06/10 10:20:58;;;;;;;22.42;5.80;;;;;;;22.62;85.64;99069.06;4797553;29;20044;-90
2022/06/10 10:23:42;;;;;;;16.27;5.13;;;;;;;22.05;86.74;99061.16;4784794;29;20406;-90
2022/06/10 10:30:44;;;;;;;11.80;4.32;;;;;;;21.14;87.14;99042.97;4795711;29;20039;-90
2022/06/10 10:33:35;;;;;;;14.20;4.63;;;;;;;22.23;86.20;99045.63;4798737;29;20516;-90
2022/06/10 10:36:10;;;;;;;14.55;4.57;;;;;;;22.74;85.21;99035.81;4806020;29;20038;-90
2022/06/10 10:38:43;;;;;;;13.68;4.45;;;;;;;20.53;85.19;99029.16;4779607;29;20034;-89
2022/06/10 10:41:46;;;;;;;;;;;;;;;;;;;;;
2022/06/10 10:44:45;;;;;;;15.37;4.67;;;;;;;20.37;90.17;99054.94;4791196;29;20092;-89
2022/06/10 10:47:11;;;;;;;24.13;6.00;;;;;;;20.34;86.12;99036.81;4795458;29;20095;-89
2022/06/10 10:49:40;;;;;;;17.80;5.70;;;;;;;20.02;85.62;99042.22;4784691;29;20050;-89
2022/06/10 10:52:21;;;;;;;20.80;6.35;;;;;;;19.62;86.83;99071.75;4808347;29;20077;-84
2022/06/10 10:54:53;;;;;;;15.25;5.13;;;;;;;20.01;87.23;99045.97;4796989;29;20114;-85
2022/06/10 10:57:26;;;;;;;16.42;5.13;;;;;;;20.47;86.40;99046.19;4796407;29;20034;-85
2022/06/10 11:00:09;;;;;;;16.08;5.40;;;;;;;20.33;86.77;99048.53;4808115;29;20397;-85
2022/06/10 11:02:40;;;;;;;21.23;5.80;;;;;;;20.63;86.43;99044.38;4792969;29;20482;-85
2022/06/10 11:05:17;;;;;;;17.60;5.10;;;;;;;20.75;87.30;99057.53;4792806;29;20038;-85
2022/06/10 11:07:45;;;;;;;17.00;4.85;;;;;;;20.93;87.47;99050.13;4808190;29;20031;-86
2022/06/10 11:10:23;;;;;;;20.40;5.25;;;;;;;20.60;84.80;99049.47;4824462;29;20031;-85
2022/06/10 11:12:50;;;;;;;9.88;4.20;;;;;;;21.60;85.37;99033.38;4796449;29;20042;-85
2022/06/10 11:15:27;;;;;;;12.93;4.78;;;;;;;22.23;85.95;99046.41;4811862;29;20053;-84
2022/06/10 11:17:54;;;;;;;15.13;4.95;;;;;;;22.47;83.81;99039.69;4811464;29;20041;-85
2022/06/10 11:20:32;;;;;;;20.45;4.97;;;;;;;22.77;81.25;99043.28;4795815;29;20084;-81
2022/06/10 11:23:21;;;;;;;18.85;5.65;;;;;;;22.79;81.08;99030.44;4814587;29;20045;-82
2022/06/10 11:26:12;;;;;;;18.17;5.45;;;;;;;22.78;80.67;99045.69;4800585;29;20068;-83
2022/06/10 11:28:41;;;;;;;18.48;5.57;;;;;;;23.29;80.17;99037.66;4804078;29;20452;-81
2022/06/10 11:31:44;;;;;;;17.98;5.70;;;;;;;23.80;79.54;99042.59;4799701;29;20034;-83
2022/06/10 11:34:21;;;;;;;18.05;5.45;;;;;;;23.89;78.89;99050.00;4780859;30;20138;-81
2022/06/10 11:36:51;;;;;;;15.50;5.60;;;;;;;24.30;78.29;99056.88;4800345;29;20054;-82
2022/06/10 11:39:33;;;;;;;19.35;5.70;;;;;;;24.18;78.98;99049.22;4815251;29;20034;-82
2022/06/10 11:42:13;;;;;;;13.65;5.78;;;;;;;24.36;78.09;99035.06;4800831;29;20034;-82
2022/06/10 11:44:47;;;;;;;24.73;6.40;;;;;;;24.09;78.21;99033.75;4808730;29;20047;-84
2022/06/10 11:47:47;;;;;;;22.58;5.53;;;;;;;24.38;74.88;99032.09;4800782;29;20034;-83
2022/06/10 11:50:21;;;;;;;20.00;5.57;;;;;;;24.53;75.40;99033.78;4790226;29;20042;-83
2022/06/10 11:53:16;;;;;;;20.00;5.85;;;;;;;24.86;74.96;99031.25;4816175;29;20458;-83
2022/06/10 11:55:44;;;;;;;17.85;5.45;;;;;;;25.02;74.92;99025.66;4774706;30;20499;-82
2022/06/10 12:01:15;;;;;;;15.07;5.43;;;;;;;25.80;76.08;99017.16;4793665;29;20500;-85
2022/06/10 12:03:48;;;;;;;15.65;5.47;;;;;;;25.35;75.29;99025.69;4799741;29;20030;-85
2022/06/10 12:06:23;;;;;;;19.08;6.13;;;;;;;25.45;75.24;99017.47;4797808;29;20832;-83
2022/06/10 12:08:58;;;;;;;20.55;6.03;;;;;;;25.27;71.06;99020.97;4811863;29;20431;-84
2022/06/10 12:11:33;;;;;;;17.33;5.57;;;;;;;25.14;73.61;99034.06;4787603;29;20631;-84